createdAt,value
2019-03-06T00:00:37.784Z,29.35
2019-03-06T00:01:17.679Z,29.12
2019-03-06T00:01:53.841Z,29.27
2019-03-06T00:02:28.566Z,29.15
2019-03-06T00:03:01.619Z,29.00
2019-03-06T00:03:34.715Z,29.18
2019-03-06T00:04:07.654Z,29.00
2019-03-06T00:04:41.673Z,29.42
2019-03-06T00:05:14.726Z,28.95
2019-03-06T00:05:47.795Z,29.90
2019-03-06T00:06:20.810Z,29.65
2019-03-06T00:06:53.806Z,29.35
2019-03-06T00:07:26.659Z,30.00
2019-03-06T00:08:00.831Z,28.95
2019-03-06T00:08:33.823Z,29.75
2019-03-06T00:09:07.407Z,29.30
2019-03-06T00:09:40.948Z,29.63
2019-03-06T00:10:25.994Z,29.40
2019-03-06T00:10:59.159Z,29.27
2019-03-06T00:11:32.161Z,29.50
2019-03-06T00:12:05.205Z,29.65
2019-03-06T00:12:38.255Z,29.30
2019-03-06T00:13:11.338Z,29.63
2019-03-06T00:13:44.375Z,29.80
2019-03-06T00:14:17.513Z,29.35
2019-03-06T00:14:50.578Z,29.37
2019-03-06T00:15:23.568Z,30.25
2019-03-06T00:15:56.582Z,29.77
2019-03-06T00:16:29.607Z,29.67
2019-03-06T00:17:02.679Z,29.65
2019-03-06T00:17:35.658Z,30.08
2019-03-06T00:18:08.871Z,29.82
2019-03-06T00:18:41.885Z,29.72
2019-03-06T00:19:15.028Z,30.45
2019-03-06T00:19:47.936Z,29.90
2019-03-06T00:20:21.427Z,29.98
2019-03-06T00:20:54.333Z,30.37
2019-03-06T00:21:27.451Z,29.90
2019-03-06T00:22:00.471Z,30.32
2019-03-06T00:22:33.544Z,30.50
2019-03-06T00:23:07.738Z,30.30
2019-03-06T00:23:40.879Z,30.00
2019-03-06T00:24:13.866Z,30.65
2019-03-06T00:24:46.890Z,30.23
2019-03-06T00:25:20.036Z,30.43
2019-03-06T00:25:53.135Z,30.48
2019-03-06T00:26:26.147Z,30.48
2019-03-06T00:27:00.777Z,30.97
2019-03-06T00:27:33.635Z,30.60
2019-03-06T00:28:08.921Z,30.90
2019-03-06T00:28:41.953Z,30.57
2019-03-06T00:29:14.915Z,31.23
2019-03-06T00:29:47.813Z,30.92
2019-03-06T00:30:20.956Z,30.90
2019-03-06T00:30:53.975Z,30.80
2019-03-06T00:31:28.373Z,30.92
2019-03-06T00:32:01.394Z,31.05
2019-03-06T00:32:34.415Z,31.48
2019-03-06T00:33:07.427Z,31.23
2019-03-06T00:33:40.420Z,31.48
2019-03-06T00:34:13.525Z,30.90
2019-03-06T00:34:49.483Z,30.80
2019-03-06T00:35:25.685Z,31.33
2019-03-06T00:35:59.071Z,31.80
2019-03-06T00:36:32.761Z,30.97
2019-03-06T00:37:05.936Z,31.90
2019-03-06T00:37:38.976Z,32.08
2019-03-06T00:38:11.906Z,32.00
2019-03-06T00:38:44.787Z,31.82
2019-03-06T00:39:17.969Z,32.25
2019-03-06T00:40:00.363Z,31.65
2019-03-06T00:40:41.704Z,32.00
2019-03-06T00:41:19.366Z,31.95
2019-03-06T00:41:53.384Z,32.38
2019-03-06T00:42:26.401Z,32.45
2019-03-06T00:42:59.415Z,31.65
2019-03-06T00:43:32.419Z,31.77
2019-03-06T00:44:05.493Z,32.78
2019-03-06T00:44:38.316Z,32.53
2019-03-06T00:45:11.420Z,32.60
2019-03-06T00:45:44.408Z,33.05
2019-03-06T00:46:17.978Z,32.63
2019-03-06T00:46:51.066Z,33.18
2019-03-06T00:47:23.988Z,32.98
2019-03-06T00:47:56.998Z,32.65
2019-03-06T00:48:30.161Z,33.02
2019-03-06T00:49:03.252Z,32.67
2019-03-06T00:49:36.294Z,33.65
2019-03-06T00:50:09.407Z,33.78
2019-03-06T00:50:42.427Z,33.18
2019-03-06T00:51:15.438Z,33.92
2019-03-06T00:51:48.453Z,33.40
2019-03-06T00:52:21.454Z,33.55
2019-03-06T00:52:55.817Z,34.25
2019-03-06T00:53:28.717Z,33.67
2019-03-06T00:54:01.986Z,34.08
2019-03-06T00:54:34.986Z,34.33
2019-03-06T00:55:08.040Z,34.00
2019-03-06T00:55:41.157Z,33.83
2019-03-06T00:56:14.109Z,33.88
2019-03-06T00:56:46.905Z,34.13
2019-03-06T00:57:19.839Z,34.45
2019-03-06T00:57:53.355Z,33.98
2019-03-06T00:58:26.531Z,34.05
2019-03-06T00:58:59.531Z,34.08
2019-03-06T00:59:32.571Z,34.53
2019-03-06T01:00:06.100Z,34.20
2019-03-06T01:00:41.102Z,34.50
2019-03-06T01:01:15.107Z,35.10
2019-03-06T01:01:48.124Z,33.90
2019-03-06T01:02:21.522Z,34.80
2019-03-06T01:02:54.689Z,34.30
2019-03-06T01:03:27.990Z,34.48
2019-03-06T01:04:01.042Z,34.13
2019-03-06T01:04:33.949Z,34.15
2019-03-06T01:05:14.973Z,34.48
2019-03-06T01:05:54.782Z,34.33
2019-03-06T01:06:27.946Z,34.80
2019-03-06T01:07:00.818Z,35.00
2019-03-06T01:07:33.747Z,34.45
2019-03-06T01:08:06.825Z,34.30
2019-03-06T01:08:39.889Z,34.53
2019-03-06T01:09:12.943Z,34.20
2019-03-06T01:09:46.027Z,34.23
2019-03-06T01:10:23.681Z,34.48
2019-03-06T01:10:56.805Z,35.10
2019-03-06T01:11:29.789Z,34.38
2019-03-06T01:12:02.949Z,34.40
2019-03-06T01:12:35.933Z,34.25
2019-03-06T01:13:08.960Z,34.65
2019-03-06T01:13:41.853Z,34.20
2019-03-06T01:14:14.781Z,34.23
2019-03-06T01:14:47.969Z,34.85
2019-03-06T01:15:22.390Z,34.15
2019-03-06T01:15:55.683Z,33.92
2019-03-06T01:16:28.701Z,33.83
2019-03-06T01:17:01.911Z,34.15
2019-03-06T01:17:34.941Z,34.25
2019-03-06T01:18:08.364Z,34.67
2019-03-06T01:18:41.408Z,34.50
2019-03-06T01:19:14.387Z,34.63
2019-03-06T01:19:47.418Z,34.90
2019-03-06T01:20:20.515Z,34.85
2019-03-06T01:20:53.577Z,34.50
2019-03-06T01:21:26.667Z,34.83
2019-03-06T01:22:00.486Z,34.45
2019-03-06T01:22:33.478Z,33.45
2019-03-06T01:23:06.422Z,35.05
2019-03-06T01:23:39.299Z,34.35
2019-03-06T01:24:12.142Z,33.92
2019-03-06T01:24:45.063Z,35.33
2019-03-06T01:25:18.247Z,34.83
2019-03-06T01:25:51.241Z,34.33
2019-03-06T01:26:24.285Z,34.85
2019-03-06T01:26:57.181Z,34.90
2019-03-06T01:27:31.871Z,34.75
2019-03-06T01:28:04.886Z,34.50
2019-03-06T01:28:37.834Z,34.90
2019-03-06T01:29:10.802Z,34.83
2019-03-06T01:29:43.765Z,34.65
2019-03-06T01:30:17.019Z,34.45
2019-03-06T01:30:49.941Z,34.88
2019-03-06T01:31:22.950Z,34.50
2019-03-06T01:31:56.071Z,34.90
2019-03-06T01:32:29.146Z,35.48
2019-03-06T01:33:07.317Z,35.80
2019-03-06T01:33:51.286Z,35.83
2019-03-06T01:34:45.161Z,34.98
2019-03-06T01:35:30.593Z,35.48
2019-03-06T01:36:09.643Z,35.23
2019-03-06T01:36:58.257Z,35.80
2019-03-06T01:37:50.968Z,36.30
2019-03-06T01:38:42.321Z,36.25
2019-03-06T01:39:26.567Z,35.95
2019-03-06T01:40:15.889Z,36.98
2019-03-06T01:41:11.593Z,37.98
2019-03-06T01:41:59.019Z,37.50
2019-03-06T01:42:40.012Z,37.93
2019-03-06T01:43:20.741Z,37.58
2019-03-06T01:44:07.379Z,37.98
2019-03-06T01:44:47.568Z,37.50
2019-03-06T01:45:21.056Z,38.15
2019-03-06T01:45:54.063Z,37.45
2019-03-06T01:46:27.109Z,38.48
2019-03-06T01:47:00.141Z,37.70
2019-03-06T01:47:33.263Z,38.08
2019-03-06T01:48:06.425Z,39.18
2019-03-06T01:48:39.422Z,38.67
2019-03-06T01:49:12.385Z,38.28
2019-03-06T01:49:45.421Z,38.70
2019-03-06T01:50:18.482Z,39.27
2019-03-06T01:50:51.693Z,39.70
2019-03-06T01:51:24.765Z,39.20
2019-03-06T01:51:57.805Z,38.80
2019-03-06T01:52:30.869Z,39.27
2019-03-06T01:53:04.419Z,39.45
2019-03-06T01:53:37.345Z,39.70
2019-03-06T01:54:10.477Z,39.23
2019-03-06T01:54:43.533Z,39.15
2019-03-06T01:55:16.681Z,40.05
2019-03-06T01:55:49.989Z,37.58
2019-03-06T01:56:23.991Z,39.78
2019-03-06T01:56:56.933Z,39.55
2019-03-06T01:57:29.926Z,40.28
2019-03-06T01:58:04.643Z,41.05
2019-03-06T01:58:38.739Z,39.63
2019-03-06T01:59:12.012Z,39.80
2019-03-06T01:59:45.229Z,40.28
2019-03-06T02:00:18.627Z,39.85
2019-03-06T02:00:51.749Z,39.38
2019-03-06T02:01:24.789Z,39.90
2019-03-06T02:01:57.963Z,40.17
2019-03-06T02:02:31.159Z,40.83
2019-03-06T02:03:04.382Z,40.15
2019-03-06T02:03:38.895Z,39.63
2019-03-06T02:04:13.190Z,39.88
2019-03-06T02:04:46.270Z,39.13
2019-03-06T02:05:19.331Z,39.80
2019-03-06T02:05:52.495Z,40.05
2019-03-06T02:06:25.531Z,41.00
2019-03-06T02:06:58.603Z,39.75
2019-03-06T02:07:33.445Z,40.38
2019-03-06T02:08:06.515Z,40.67
2019-03-06T02:08:39.591Z,41.02
2019-03-06T02:09:14.103Z,41.08
2019-03-06T02:09:47.258Z,39.53
2019-03-06T02:10:21.089Z,40.67
2019-03-06T02:10:54.153Z,39.42
2019-03-06T02:11:27.199Z,40.80
2019-03-06T02:12:00.287Z,41.13
2019-03-06T02:12:33.349Z,39.67
2019-03-06T02:13:07.205Z,40.15
2019-03-06T02:13:40.471Z,41.02
2019-03-06T02:14:13.585Z,41.25
2019-03-06T02:14:46.643Z,40.60
2019-03-06T02:15:19.677Z,41.13
2019-03-06T02:15:52.950Z,40.20
2019-03-06T02:16:26.017Z,41.28
2019-03-06T02:16:59.037Z,40.05
2019-03-06T02:17:31.958Z,40.58
2019-03-06T02:18:04.994Z,41.35
2019-03-06T02:18:38.039Z,40.60
2019-03-06T02:19:11.105Z,40.45
2019-03-06T02:19:44.406Z,40.95
2019-03-06T02:20:17.575Z,40.40
2019-03-06T02:20:50.584Z,40.60
2019-03-06T02:21:24.233Z,40.55
2019-03-06T02:21:57.511Z,41.15
2019-03-06T02:22:30.583Z,41.10
2019-03-06T02:23:03.629Z,41.77
2019-03-06T02:23:36.609Z,41.48
2019-03-06T02:24:09.925Z,41.75
2019-03-06T02:24:42.955Z,40.43
2019-03-06T02:25:15.977Z,38.08
2019-03-06T02:25:50.789Z,40.98
2019-03-06T02:26:23.805Z,40.75
2019-03-06T02:26:57.162Z,40.58
2019-03-06T02:27:30.190Z,40.67
2019-03-06T02:28:03.635Z,41.98
2019-03-06T02:28:36.533Z,41.15
2019-03-06T02:29:09.918Z,41.23
2019-03-06T02:29:42.834Z,41.53
2019-03-06T02:30:18.834Z,41.80
2019-03-06T02:30:51.797Z,41.42
2019-03-06T02:31:25.210Z,40.95
2019-03-06T02:31:58.140Z,41.73
2019-03-06T02:32:31.279Z,40.75
2019-03-06T02:33:04.452Z,42.13
2019-03-06T02:33:38.435Z,40.85
2019-03-06T02:34:11.473Z,41.23
2019-03-06T02:34:45.211Z,42.10
2019-03-06T02:35:18.350Z,40.98
2019-03-06T02:35:51.351Z,41.63
2019-03-06T02:36:24.459Z,41.18
2019-03-06T02:36:58.486Z,40.98
2019-03-06T02:37:31.398Z,40.83
2019-03-06T02:38:04.528Z,41.08
2019-03-06T02:38:37.551Z,41.00
2019-03-06T02:39:10.544Z,41.50
2019-03-06T02:39:43.554Z,41.40
2019-03-06T02:40:16.735Z,41.85
2019-03-06T02:40:49.787Z,41.15
2019-03-06T02:41:22.686Z,40.00
2019-03-06T02:41:55.507Z,41.60
2019-03-06T02:42:28.422Z,40.50
2019-03-06T02:43:01.426Z,40.25
2019-03-06T02:43:34.350Z,39.92
2019-03-06T02:44:07.283Z,39.35
2019-03-06T02:44:40.300Z,39.70
2019-03-06T02:45:14.527Z,41.00
2019-03-06T02:45:47.449Z,39.75
2019-03-06T02:46:20.512Z,40.25
2019-03-06T02:46:53.438Z,40.15
2019-03-06T02:47:26.455Z,40.00
2019-03-06T02:47:59.462Z,40.35
2019-03-06T02:48:32.405Z,40.63
2019-03-06T02:49:05.724Z,40.83
2019-03-06T02:49:38.962Z,39.83
2019-03-06T02:50:12.465Z,41.80
2019-03-06T02:50:45.786Z,39.83
2019-03-06T02:51:18.800Z,40.20
2019-03-06T02:51:52.199Z,39.85
2019-03-06T02:52:25.212Z,39.35
2019-03-06T02:52:58.541Z,40.50
2019-03-06T02:53:31.473Z,40.60
2019-03-06T02:54:04.532Z,39.95
2019-03-06T02:54:37.428Z,40.00
2019-03-06T02:55:10.864Z,40.78
2019-03-06T02:55:44.161Z,40.08
2019-03-06T02:56:17.282Z,40.80
2019-03-06T02:56:50.403Z,39.60
2019-03-06T02:57:23.534Z,40.23
2019-03-06T02:58:03.731Z,40.75
2019-03-06T02:58:54.753Z,40.70
2019-03-06T02:59:53.152Z,40.73
2019-03-06T03:00:46.038Z,40.92
2019-03-06T03:01:56.626Z,40.70
2019-03-06T03:02:49.293Z,41.48
2019-03-06T03:03:28.461Z,41.75
2019-03-06T03:04:09.240Z,40.73
2019-03-06T03:04:48.743Z,40.78
2019-03-06T03:05:35.669Z,41.02
2019-03-06T03:06:15.064Z,41.83
2019-03-06T03:06:52.040Z,41.42
2019-03-06T03:07:25.459Z,41.65
2019-03-06T03:07:58.379Z,39.80
2019-03-06T03:08:31.407Z,40.92
2019-03-06T03:09:16.219Z,40.75
2019-03-06T03:09:49.236Z,41.18
2019-03-06T03:10:23.213Z,41.00
2019-03-06T03:10:56.111Z,41.90
2019-03-06T03:11:29.315Z,41.00
2019-03-06T03:12:02.297Z,40.25
2019-03-06T03:12:35.545Z,41.10
2019-03-06T03:13:08.579Z,40.98
2019-03-06T03:13:41.590Z,41.15
2019-03-06T03:14:14.661Z,41.35
2019-03-06T03:14:48.696Z,40.65
2019-03-06T03:15:21.789Z,42.13
2019-03-06T03:15:54.803Z,41.73
2019-03-06T03:16:27.709Z,40.25
2019-03-06T03:17:00.839Z,41.18
2019-03-06T03:17:33.822Z,40.70
2019-03-06T03:18:06.827Z,41.02
2019-03-06T03:18:39.827Z,41.80
2019-03-06T03:19:13.065Z,40.52
2019-03-06T03:19:46.067Z,41.60
2019-03-06T03:20:19.087Z,41.33
2019-03-06T03:20:52.107Z,40.90
2019-03-06T03:21:26.971Z,41.53
2019-03-06T03:21:59.895Z,41.63
2019-03-06T03:22:32.839Z,40.80
2019-03-06T03:23:05.953Z,41.13
2019-03-06T03:23:38.900Z,41.73
2019-03-06T03:24:11.693Z,41.95
2019-03-06T03:24:44.956Z,40.75
2019-03-06T03:25:18.025Z,42.00
2019-03-06T03:25:51.221Z,41.53
2019-03-06T03:26:24.116Z,40.50
2019-03-06T03:26:57.306Z,41.60
2019-03-06T03:27:30.222Z,41.65
2019-03-06T03:28:03.760Z,41.23
2019-03-06T03:28:36.617Z,41.30
2019-03-06T03:29:09.623Z,41.15
2019-03-06T03:29:42.550Z,42.08
2019-03-06T03:30:15.598Z,42.33
2019-03-06T03:30:48.583Z,41.13
2019-03-06T03:31:22.220Z,40.80
2019-03-06T03:31:55.091Z,41.25
2019-03-06T03:32:28.142Z,41.55
2019-03-06T03:33:00.917Z,40.65
2019-03-06T03:33:33.847Z,41.20
2019-03-06T03:34:06.828Z,41.23
2019-03-06T03:34:39.869Z,42.03
2019-03-06T03:35:12.980Z,40.60
2019-03-06T03:35:47.420Z,40.80
2019-03-06T03:36:20.323Z,41.35
2019-03-06T03:36:53.379Z,41.58
2019-03-06T03:37:26.380Z,41.05
2019-03-06T03:37:59.416Z,41.33
2019-03-06T03:38:32.321Z,41.83
2019-03-06T03:39:06.976Z,41.53
2019-03-06T03:39:41.071Z,41.10
2019-03-06T03:40:14.612Z,41.30
2019-03-06T03:40:47.601Z,40.75
2019-03-06T03:41:20.886Z,41.45
2019-03-06T03:41:53.919Z,41.08
2019-03-06T03:42:27.120Z,40.83
2019-03-06T03:43:00.091Z,40.55
2019-03-06T03:43:34.750Z,39.50
2019-03-06T03:44:07.789Z,39.33
2019-03-06T03:44:40.874Z,40.78
2019-03-06T03:45:13.874Z,41.02
2019-03-06T03:45:46.922Z,40.75
2019-03-06T03:46:19.820Z,40.80
2019-03-06T03:46:53.002Z,40.83
2019-03-06T03:47:25.994Z,40.55
2019-03-06T03:48:00.615Z,41.08
2019-03-06T03:48:33.602Z,41.40
2019-03-06T03:49:06.605Z,39.63
2019-03-06T03:49:39.743Z,39.95
2019-03-06T03:50:12.908Z,41.02
2019-03-06T03:50:46.013Z,40.60
2019-03-06T03:51:19.067Z,40.65
2019-03-06T03:51:52.374Z,39.50
2019-03-06T03:52:25.470Z,39.75
2019-03-06T03:52:58.474Z,40.28
2019-03-06T03:53:31.513Z,39.63
2019-03-06T03:54:04.596Z,41.02
2019-03-06T03:54:37.731Z,40.60
2019-03-06T03:55:12.138Z,39.85
2019-03-06T03:55:45.262Z,39.45
2019-03-06T03:56:18.256Z,38.40
2019-03-06T03:56:52.842Z,38.70
2019-03-06T03:57:25.873Z,39.83
2019-03-06T03:57:58.794Z,40.40
2019-03-06T03:58:33.766Z,39.38
2019-03-06T03:59:06.939Z,39.23
2019-03-06T03:59:39.844Z,38.75
2019-03-06T04:00:13.755Z,39.67
2019-03-06T04:00:46.785Z,38.95
2019-03-06T04:01:19.742Z,39.58
2019-03-06T04:01:52.556Z,39.18
2019-03-06T04:02:25.597Z,39.03
2019-03-06T04:02:58.613Z,39.95
2019-03-06T04:03:31.619Z,39.10
2019-03-06T04:04:04.642Z,38.63
2019-03-06T04:04:37.681Z,39.75
2019-03-06T04:05:11.299Z,38.53
2019-03-06T04:05:44.465Z,39.58
2019-03-06T04:06:17.468Z,37.80
2019-03-06T04:06:50.349Z,38.65
2019-03-06T04:07:23.153Z,38.78
2019-03-06T04:07:56.283Z,37.85
2019-03-06T04:08:29.306Z,37.73
2019-03-06T04:09:03.791Z,37.67
2019-03-06T04:09:38.212Z,38.42
2019-03-06T04:10:11.545Z,38.40
2019-03-06T04:10:44.621Z,37.63
2019-03-06T04:11:17.821Z,37.67
2019-03-06T04:11:50.816Z,38.00
2019-03-06T04:12:23.845Z,37.00
2019-03-06T04:12:56.911Z,37.98
2019-03-06T04:13:29.873Z,36.55
2019-03-06T04:14:04.545Z,36.45
2019-03-06T04:14:37.565Z,37.10
2019-03-06T04:15:10.653Z,37.30
2019-03-06T04:15:44.164Z,37.50
2019-03-06T04:16:18.072Z,36.95
2019-03-06T04:16:51.420Z,36.73
2019-03-06T04:17:24.327Z,37.20
2019-03-06T04:17:57.647Z,36.00
2019-03-06T04:18:30.545Z,36.85
2019-03-06T04:19:03.645Z,36.77
2019-03-06T04:19:36.635Z,36.58
2019-03-06T04:20:10.535Z,37.50
2019-03-06T04:20:43.517Z,36.28
2019-03-06T04:21:16.721Z,37.10
2019-03-06T04:21:49.598Z,36.85
2019-03-06T04:22:22.511Z,36.42
2019-03-06T04:22:55.414Z,36.33
2019-03-06T04:23:28.333Z,37.15
2019-03-06T04:24:01.310Z,36.20
2019-03-06T04:24:34.355Z,35.43
2019-03-06T04:25:07.781Z,35.38
2019-03-06T04:25:40.812Z,37.00
2019-03-06T04:26:13.737Z,36.35
2019-03-06T04:26:46.713Z,35.98
2019-03-06T04:27:19.617Z,35.85
2019-03-06T04:27:52.452Z,34.98
2019-03-06T04:28:27.920Z,36.05
2019-03-06T04:29:00.399Z,35.70
2019-03-06T04:29:33.311Z,36.38
2019-03-06T04:30:09.127Z,35.90
2019-03-06T04:30:42.421Z,35.73
2019-03-06T04:31:15.472Z,36.03
2019-03-06T04:31:48.373Z,35.25
2019-03-06T04:32:21.299Z,35.28
2019-03-06T04:32:54.420Z,35.60
2019-03-06T04:33:27.483Z,33.85
2019-03-06T04:34:00.468Z,34.40
2019-03-06T04:34:33.500Z,35.25
2019-03-06T04:35:06.861Z,34.95
2019-03-06T04:35:39.956Z,34.70
2019-03-06T04:36:13.039Z,35.70
2019-03-06T04:36:46.118Z,35.05
2019-03-06T04:37:19.013Z,34.83
2019-03-06T04:37:52.121Z,35.68
2019-03-06T04:38:25.003Z,34.58
2019-03-06T04:38:58.077Z,35.35
2019-03-06T04:39:31.195Z,34.98
2019-03-06T04:40:04.707Z,35.17
2019-03-06T04:40:37.713Z,35.58
2019-03-06T04:41:10.629Z,34.48
2019-03-06T04:41:43.927Z,35.43
2019-03-06T04:42:16.983Z,35.43
2019-03-06T04:42:50.187Z,35.17
2019-03-06T04:43:23.212Z,34.27
2019-03-06T04:43:56.091Z,34.65
2019-03-06T04:44:29.155Z,35.13
2019-03-06T04:45:02.256Z,35.25
2019-03-06T04:45:35.297Z,35.05
2019-03-06T04:46:08.291Z,34.63
2019-03-06T04:46:41.417Z,34.10
2019-03-06T04:47:14.211Z,34.92
2019-03-06T04:47:47.197Z,33.05
2019-03-06T04:48:20.013Z,33.95
2019-03-06T04:48:53.001Z,34.88
2019-03-06T04:49:25.915Z,35.43
2019-03-06T04:49:58.865Z,34.55
2019-03-06T04:50:31.945Z,34.30
2019-03-06T04:51:04.803Z,33.88
2019-03-06T04:51:37.677Z,34.03
2019-03-06T04:52:10.637Z,34.35
2019-03-06T04:52:43.609Z,34.27
2019-03-06T04:53:16.605Z,34.80
2019-03-06T04:53:49.473Z,34.38
2019-03-06T04:54:22.409Z,34.23
2019-03-06T04:54:55.179Z,33.65
2019-03-06T04:55:28.209Z,34.50
2019-03-06T04:56:01.207Z,34.05
2019-03-06T04:56:34.075Z,34.45
2019-03-06T04:57:07.337Z,33.85
2019-03-06T04:57:40.352Z,33.90
2019-03-06T04:58:13.339Z,34.30
2019-03-06T04:58:46.363Z,33.45
2019-03-06T04:59:19.260Z,34.35
2019-03-06T04:59:52.295Z,34.60
2019-03-06T05:00:25.313Z,35.05
2019-03-06T05:00:58.634Z,34.43
2019-03-06T05:01:31.517Z,34.58
2019-03-06T05:02:04.848Z,34.50
2019-03-06T05:02:37.824Z,34.67
2019-03-06T05:03:11.337Z,35.65
2019-03-06T05:03:45.238Z,34.45
2019-03-06T05:04:18.457Z,34.23
2019-03-06T05:04:51.454Z,34.70
2019-03-06T05:05:24.470Z,35.00
2019-03-06T05:05:57.385Z,35.13
2019-03-06T05:06:30.427Z,34.30
2019-03-06T05:07:03.408Z,34.27
2019-03-06T05:07:36.579Z,34.60
2019-03-06T05:08:09.477Z,33.80
2019-03-06T05:08:43.019Z,34.50
2019-03-06T05:09:15.929Z,35.08
2019-03-06T05:09:48.892Z,34.33
2019-03-06T05:10:21.859Z,34.33
2019-03-06T05:10:54.807Z,35.15
2019-03-06T05:11:27.827Z,34.23
2019-03-06T05:12:00.871Z,34.27
2019-03-06T05:12:33.874Z,34.90
2019-03-06T05:13:07.029Z,34.50
2019-03-06T05:13:40.045Z,34.33
2019-03-06T05:14:12.997Z,34.00
2019-03-06T05:14:46.063Z,33.53
2019-03-06T05:15:19.207Z,33.70
2019-03-06T05:15:52.090Z,34.13
2019-03-06T05:16:42.598Z,33.08
2019-03-06T05:17:24.781Z,33.40
2019-03-06T05:18:23.747Z,33.80
2019-03-06T05:19:00.222Z,33.35
2019-03-06T05:19:33.379Z,33.40
2019-03-06T05:20:06.994Z,33.73
2019-03-06T05:20:40.175Z,32.98
2019-03-06T05:21:13.079Z,32.93
2019-03-06T05:21:47.284Z,32.38
2019-03-06T05:22:20.269Z,32.78
2019-03-06T05:22:53.282Z,33.10
2019-03-06T05:23:26.298Z,33.33
2019-03-06T05:23:59.245Z,32.63
2019-03-06T05:24:32.141Z,32.70
2019-03-06T05:25:05.277Z,32.93
2019-03-06T05:25:38.189Z,32.63
2019-03-06T05:26:11.105Z,33.25
2019-03-06T05:26:45.094Z,32.53
2019-03-06T05:27:18.153Z,32.33
2019-03-06T05:27:51.043Z,32.88
2019-03-06T05:28:24.033Z,32.23
2019-03-06T05:28:57.003Z,31.93
2019-03-06T05:29:29.948Z,32.42
2019-03-06T05:30:03.398Z,32.25
2019-03-06T05:30:37.425Z,32.08
2019-03-06T05:31:10.433Z,32.35
2019-03-06T05:32:34.604Z,32.25
2019-03-06T05:33:09.241Z,29.98
2019-03-06T05:33:42.455Z,31.97
2019-03-06T05:34:15.277Z,32.10
2019-03-06T05:34:48.277Z,31.85
2019-03-06T05:36:26.779Z,32.20
2019-03-06T05:38:06.413Z,32.17
2019-03-06T05:38:49.908Z,31.85
2019-03-06T05:39:23.037Z,31.62
2019-03-06T05:39:55.829Z,32.98
2019-03-06T05:40:29.153Z,32.03
2019-03-06T05:41:03.323Z,31.85
2019-03-06T05:41:36.532Z,32.85
2019-03-06T05:42:09.454Z,31.80
2019-03-06T05:42:42.792Z,32.10
2019-03-06T05:43:15.906Z,32.08
2019-03-06T05:43:49.317Z,31.65
2019-03-06T05:44:22.219Z,32.00
2019-03-06T05:44:55.130Z,31.73
2019-03-06T05:45:29.755Z,31.15
2019-03-06T05:46:02.875Z,31.62
2019-03-06T05:46:36.061Z,32.20
2019-03-06T05:47:08.873Z,32.00
2019-03-06T05:47:41.823Z,31.75
2019-03-06T05:48:14.961Z,32.33
2019-03-06T05:48:48.749Z,32.90
2019-03-06T05:49:21.593Z,32.00
2019-03-06T05:49:54.395Z,32.13
2019-03-06T05:50:27.520Z,32.48
2019-03-06T05:51:01.127Z,32.55
2019-03-06T05:51:34.138Z,32.05
2019-03-06T05:52:07.236Z,32.00
2019-03-06T05:52:40.285Z,32.38
2019-03-06T05:53:13.215Z,31.45
2019-03-06T05:53:46.293Z,32.08
2019-03-06T05:54:19.303Z,32.15
2019-03-06T05:54:52.271Z,32.50
2019-03-06T05:55:25.299Z,32.33
2019-03-06T05:55:58.361Z,32.73
2019-03-06T05:56:31.250Z,31.65
2019-03-06T05:57:04.097Z,31.77
2019-03-06T05:57:37.095Z,31.62
2019-03-06T05:58:10.120Z,31.20
2019-03-06T05:58:43.060Z,31.80
2019-03-06T05:59:16.091Z,31.57
2019-03-06T05:59:49.086Z,32.63
2019-03-06T06:00:25.089Z,31.50
2019-03-06T06:00:58.409Z,31.85
2019-03-06T06:01:31.443Z,31.45
2019-03-06T06:02:04.589Z,32.23
2019-03-06T06:02:37.618Z,31.70
2019-03-06T06:03:12.056Z,31.97
2019-03-06T06:03:45.094Z,31.42
2019-03-06T06:04:17.975Z,31.27
2019-03-06T06:04:50.906Z,31.57
2019-03-06T06:05:23.949Z,31.97
2019-03-06T06:05:56.882Z,31.25
2019-03-06T06:06:29.819Z,31.77
2019-03-06T06:07:02.890Z,31.20
2019-03-06T06:07:37.629Z,31.70
2019-03-06T06:08:10.671Z,31.57
2019-03-06T06:08:43.549Z,31.52
2019-03-06T06:09:16.477Z,31.20
2019-03-06T06:09:49.439Z,31.30
2019-03-06T06:10:22.340Z,31.07
2019-03-06T06:10:55.812Z,31.52
2019-03-06T06:11:28.930Z,31.70
2019-03-06T06:12:02.155Z,32.08
2019-03-06T06:12:35.067Z,31.75
2019-03-06T06:13:08.391Z,31.52
2019-03-06T06:13:41.445Z,31.87
2019-03-06T06:14:14.795Z,31.02
2019-03-06T06:15:37.179Z,31.20
2019-03-06T06:16:10.219Z,30.85
2019-03-06T06:16:43.372Z,30.68
2019-03-06T06:17:16.454Z,31.33
2019-03-06T06:17:49.494Z,31.02
2019-03-06T06:18:23.703Z,31.42
2019-03-06T06:18:56.827Z,31.10
2019-03-06T06:19:29.879Z,31.30
2019-03-06T06:20:03.774Z,30.32
2019-03-06T06:20:38.499Z,31.77
2019-03-06T06:21:31.195Z,30.70
2019-03-06T06:22:27.693Z,30.60
2019-03-06T06:23:20.355Z,30.75
2019-03-06T06:23:59.145Z,31.12
2019-03-06T06:24:31.995Z,30.48
2019-03-06T06:25:05.206Z,30.97
2019-03-06T06:25:38.299Z,31.27
2019-03-06T06:26:11.193Z,30.45
2019-03-06T06:26:44.487Z,30.57
2019-03-06T06:27:17.396Z,30.75
2019-03-06T06:27:50.825Z,30.52
2019-03-06T06:28:33.789Z,30.57
2019-03-06T06:29:06.795Z,30.60
2019-03-06T06:29:39.805Z,30.90
2019-03-06T06:30:13.663Z,31.00
2019-03-06T06:30:46.669Z,30.43
2019-03-06T06:31:20.683Z,30.68
2019-03-06T06:31:53.723Z,30.52
2019-03-06T06:32:26.801Z,30.85
2019-03-06T06:32:59.837Z,30.75
2019-03-06T06:33:34.009Z,30.68
2019-03-06T06:34:08.033Z,30.50
2019-03-06T06:34:41.209Z,29.82
2019-03-06T06:35:14.310Z,30.25
2019-03-06T06:35:47.324Z,30.32
2019-03-06T06:36:20.329Z,30.65
2019-03-06T06:36:53.558Z,30.30
2019-03-06T06:37:26.477Z,29.95
2019-03-06T06:37:59.763Z,30.23
2019-03-06T06:38:32.687Z,30.40
2019-03-06T06:39:07.090Z,30.05
2019-03-06T06:39:40.459Z,29.50
2019-03-06T06:40:13.900Z,29.75
2019-03-06T06:40:46.813Z,30.15
2019-03-06T06:41:21.315Z,29.70
2019-03-06T06:41:54.334Z,29.18
2019-03-06T06:42:27.242Z,29.65
2019-03-06T06:43:01.175Z,29.48
2019-03-06T06:43:34.162Z,29.70
2019-03-06T06:44:07.257Z,28.98
2019-03-06T06:44:40.068Z,29.63
2019-03-06T06:45:13.304Z,29.10
2019-03-06T06:45:46.346Z,29.87
2019-03-06T06:46:19.257Z,29.52
2019-03-06T06:46:52.399Z,29.55
2019-03-06T06:47:25.389Z,29.40
2019-03-06T06:48:16.816Z,29.27
2019-03-06T06:48:49.748Z,27.90
2019-03-06T06:49:23.263Z,28.57
2019-03-06T06:49:56.137Z,28.90
2019-03-06T06:50:29.098Z,29.05
2019-03-06T06:51:44.917Z,28.52
2019-03-06T06:53:26.516Z,28.77
2019-03-06T06:54:14.607Z,29.30
2019-03-06T06:55:49.409Z,29.27
2019-03-06T06:57:45.912Z,28.25
2019-03-06T06:59:31.549Z,28.73
2019-03-06T07:01:04.503Z,28.07
2019-03-06T07:02:48.241Z,28.57
2019-03-06T07:04:32.715Z,28.40
2019-03-06T07:05:28.483Z,28.75
2019-03-06T07:06:16.954Z,28.25
2019-03-06T07:07:06.232Z,28.30
2019-03-06T07:08:01.605Z,27.45
2019-03-06T07:08:42.967Z,27.73
2019-03-06T07:09:34.290Z,27.80
2019-03-06T07:10:29.877Z,27.67
2019-03-06T07:11:25.381Z,28.67
2019-03-06T07:12:17.842Z,28.40
2019-03-06T07:13:10.898Z,28.02
2019-03-06T07:14:03.517Z,28.02
2019-03-06T07:14:58.816Z,27.85
2019-03-06T07:15:50.313Z,27.55
2019-03-06T07:16:46.130Z,28.05
2019-03-06T07:17:31.200Z,27.58
2019-03-06T07:18:23.979Z,27.85
2019-03-06T07:19:19.222Z,27.27
2019-03-06T07:20:13.700Z,27.32
2019-03-06T07:21:12.475Z,27.32
2019-03-06T07:21:57.405Z,27.07
2019-03-06T07:22:49.013Z,27.50
2019-03-06T07:23:37.347Z,27.20
2019-03-06T07:24:29.171Z,27.80
2019-03-06T07:25:22.209Z,27.70
2019-03-06T07:26:08.225Z,27.20
2019-03-06T07:26:49.577Z,27.70
2019-03-06T07:27:54.146Z,27.00
2019-03-06T07:28:37.083Z,27.50
2019-03-06T07:29:17.023Z,26.93
2019-03-06T07:30:18.948Z,27.15
2019-03-06T07:31:09.535Z,26.65
2019-03-06T07:32:14.119Z,26.80
2019-03-06T07:33:15.581Z,26.87
2019-03-06T07:34:06.864Z,27.13
2019-03-06T07:35:19.110Z,26.77
2019-03-06T07:36:20.901Z,26.33
2019-03-06T07:36:59.364Z,26.75
2019-03-06T07:37:44.039Z,26.73
2019-03-06T07:38:17.079Z,26.60
2019-03-06T07:38:55.160Z,26.70
2019-03-06T07:39:36.607Z,26.77
2019-03-06T07:40:17.917Z,26.73
2019-03-06T07:40:57.759Z,26.50
2019-03-06T07:41:50.573Z,26.55
2019-03-06T07:42:39.328Z,26.52
2019-03-06T07:43:33.287Z,26.95
2019-03-06T07:44:35.450Z,25.90
2019-03-06T07:45:56.453Z,26.25